Time;durP1;ratioP1;P1;durP2;ratioP2;P2;SDS_P1;SDS_P2;PMS_P1;PMS_P2;Temp;Humidity;BMP_temperature;BMP_pressure;BME280_temperature;BME280_humidity;BME280_pressure;Samples;Min_cycle;Max_cycle;Signal;HPM_P1;HPM_P2
2022/02/21 00:01:12;;;;;;;7.97;5.30;;;;;;;3.12;63.16;100539.09;1744319;82;21015;-72
2022/02/21 00:03:39;;;;;;;9.70;6.33;;;;;;;3.11;63.22;100533.48;1744502;80;20873;-73
2022/02/21 00:06:06;;;;;;;9.73;5.75;;;;;;;3.08;63.27;100531.84;1744751;82;20984;-72
2022/02/21 00:08:32;;;;;;;9.60;5.53;;;;;;;3.06;63.27;100523.72;1744591;81;21804;-73
2022/02/21 00:11:02;;;;;;;10.53;5.80;;;;;;;3.03;63.29;100523.38;1744418;81;20901;-72
2022/02/21 00:13:29;;;;;;;12.70;6.25;;;;;;;3.02;63.33;100520.81;1744571;82;21436;-71
2022/02/21 00:15:57;;;;;;;12.82;5.87;;;;;;;2.99;63.32;100521.77;1745141;82;20976;-74
2022/02/21 00:18:25;;;;;;;9.18;5.87;;;;;;;2.96;63.37;100519.28;1744698;80;20901;-74
2022/02/21 00:20:52;;;;;;;12.60;6.20;;;;;;;2.93;63.40;100519.35;1744363;81;21538;-73
2022/02/21 00:23:19;;;;;;;11.65;6.62;;;;;;;2.89;63.53;100517.32;1744635;81;20932;-74
2022/02/21 00:25:48;;;;;;;11.45;6.50;;;;;;;2.87;63.59;100505.31;1744669;80;20920;-74
2022/02/21 00:28:15;;;;;;;9.98;6.15;;;;;;;2.82;63.71;100508.47;1744398;81;20976;-73
2022/02/21 00:30:42;;;;;;;11.10;6.25;;;;;;;2.79;63.77;100509.86;1744796;82;21378;-74
2022/02/21 00:33:08;;;;;;;15.00;7.08;;;;;;;2.75;63.88;100505.66;1744536;82;21450;-74
2022/02/21 00:35:38;;;;;;;12.13;7.30;;;;;;;2.73;63.92;100508.74;1744374;81;21024;-73
2022/02/21 00:38:05;;;;;;;11.15;6.70;;;;;;;2.68;64.07;100499.37;1744409;82;20936;-74
2022/02/21 00:40:32;;;;;;;11.48;7.25;;;;;;;2.66;64.11;100505.03;1744447;81;20976;-74
2022/02/21 00:42:59;;;;;;;11.45;7.40;;;;;;;2.63;64.21;100505.59;1744495;82;20881;-73
2022/02/21 00:45:26;;;;;;;15.50;7.42;;;;;;;2.60;64.24;100491.42;1744320;82;21152;-74
2022/02/21 00:47:53;;;;;;;10.48;6.53;;;;;;;2.56;64.34;100502.33;1744531;81;20975;-74
2022/02/21 00:50:21;;;;;;;11.22;5.78;;;;;;;2.55;64.36;100508.38;1744522;81;20881;-74
2022/02/21 00:52:49;;;;;;;10.82;5.90;;;;;;;2.52;64.42;100503.30;1744407;82;20953;-72
2022/02/21 00:55:16;;;;;;;8.83;5.90;;;;;;;2.52;64.51;100503.76;1744488;82;20992;-72
2022/02/21 00:57:45;;;;;;;9.03;6.22;;;;;;;2.49;64.56;100497.77;1744466;82;21570;-71
2022/02/21 01:00:12;;;;;;;11.38;6.37;;;;;;;2.47;64.64;100496.97;1744452;81;20873;-70
2022/02/21 01:02:39;;;;;;;10.60;7.17;;;;;;;2.46;64.70;100499.59;1744480;80;20921;-72
2022/02/21 01:05:07;;;;;;;8.13;5.75;;;;;;;2.45;64.75;100492.73;1744518;81;21098;-72
2022/02/21 01:07:35;;;;;;;10.43;5.75;;;;;;;2.43;64.77;100496.64;1744657;82;20952;-71
2022/02/21 01:10:02;;;;;;;11.50;5.83;;;;;;;2.43;64.86;100493.22;1744938;82;22092;-72
2022/02/21 01:12:28;;;;;;;10.38;6.37;;;;;;;2.42;64.91;100488.92;1744387;82;20976;-71
2022/02/21 01:14:55;;;;;;;8.43;6.47;;;;;;;2.40;64.97;100485.10;1744773;82;21509;-70
2022/02/21 01:17:22;;;;;;;10.93;5.95;;;;;;;2.37;65.07;100483.88;1744514;82;21379;-71
2022/02/21 01:19:51;;;;;;;12.05;7.03;;;;;;;2.37;65.12;100484.33;1744777;82;21015;-72
2022/02/21 01:22:18;;;;;;;11.85;6.90;;;;;;;2.34;65.28;100483.97;1708769;82;21533;-71
2022/02/21 01:24:45;;;;;;;12.13;6.85;;;;;;;2.31;65.41;100482.75;1708713;84;20999;-73
2022/02/21 01:27:16;;;;;;;11.43;6.42;;;;;;;2.30;65.50;100469.88;1708814;84;20924;-73
2022/02/21 01:29:41;;;;;;;10.70;6.75;;;;;;;2.26;65.62;100466.52;1708495;83;20924;-73
2022/02/21 01:32:08;;;;;;;12.00;7.87;;;;;;;2.25;65.76;100464.83;1708787;84;20896;-72
2022/02/21 01:34:36;;;;;;;11.43;6.83;;;;;;;2.22;65.83;100458.43;1708783;84;21988;-72
2022/02/21 01:37:03;;;;;;;11.90;7.92;;;;;;;2.19;65.94;100460.66;1708643;84;20979;-73
2022/02/21 01:39:30;;;;;;;9.78;6.80;;;;;;;2.18;66.06;100456.81;1708815;82;20880;-73
2022/02/21 01:41:57;;;;;;;8.38;6.58;;;;;;;2.15;66.18;100457.75;1708639;84;20896;-74
2022/02/21 01:44:37;;;;;;;17.35;7.60;;;;;;;2.14;66.21;100462.99;1708706;84;21370;-74
2022/02/21 01:47:08;;;;;;;14.33;7.30;;;;;;;2.12;66.22;100457.02;1708742;84;20924;-74
2022/02/21 01:49:36;;;;;;;13.70;7.08;;;;;;;2.11;66.24;100456.14;1708672;83;20944;-71
2022/02/21 01:52:03;;;;;;;12.30;7.45;;;;;;;2.12;66.28;100458.30;1708743;84;20920;-70
2022/02/21 01:54:31;;;;;;;12.65;8.40;;;;;;;2.11;66.22;100463.06;1708783;82;21421;-71
2022/02/21 01:56:58;;;;;;;12.40;8.75;;;;;;;2.11;66.26;100464.35;1708715;84;20935;-71
2022/02/21 01:59:25;;;;;;;11.73;8.20;;;;;;;2.10;66.19;100458.34;1708596;82;21561;-72
2022/02/21 02:01:53;;;;;;;14.70;7.53;;;;;;;2.09;65.98;100464.42;1708712;84;20931;-72
2022/02/21 02:04:21;;;;;;;12.60;8.23;;;;;;;2.12;65.84;100458.30;1708752;84;20896;-73
2022/02/21 02:06:48;;;;;;;11.68;7.65;;;;;;;2.13;65.75;100460.83;1708665;82;21406;-72
2022/02/21 02:09:15;;;;;;;13.03;7.05;;;;;;;2.14;65.65;100444.88;1708489;84;20995;-72
2022/02/21 02:11:42;;;;;;;14.10;7.50;;;;;;;2.15;65.76;100450.45;1708610;84;21149;-73
2022/02/21 02:14:09;;;;;;;14.75;6.85;;;;;;;2.14;65.76;100452.64;1708692;84;21582;-70
2022/02/21 02:16:36;;;;;;;14.30;7.95;;;;;;;2.12;65.79;100450.09;1708933;82;20900;-72
2022/02/21 02:19:02;;;;;;;13.68;7.92;;;;;;;2.11;65.79;100460.02;1709011;84;20994;-72
2022/02/21 02:21:29;;;;;;;14.78;8.13;;;;;;;2.09;65.76;100463.13;1708536;83;21077;-73
2022/02/21 02:23:56;;;;;;;12.88;8.25;;;;;;;2.08;65.76;100467.42;1733942;82;22108;-71
2022/02/21 02:26:23;;;;;;;13.98;8.88;;;;;;;2.08;65.71;100471.75;1744296;81;20964;-73
2022/02/21 02:28:52;;;;;;;13.60;7.90;;;;;;;2.07;65.77;100468.33;1744364;82;20921;-74
2022/02/21 02:31:18;;;;;;;20.10;8.38;;;;;;;2.07;65.64;100462.31;1744438;82;20869;-71
2022/02/21 02:33:46;;;;;;;15.65;8.40;;;;;;;2.05;65.58;100453.75;1744513;81;20980;-73
2022/02/21 02:36:12;;;;;;;15.43;8.35;;;;;;;2.05;65.51;100457.63;1744460;82;21768;-72
2022/02/21 02:38:40;;;;;;;12.18;8.20;;;;;;;2.05;65.48;100456.33;1744466;81;20846;-71
2022/02/21 02:41:09;;;;;;;12.43;7.85;;;;;;;2.05;65.57;100456.33;1744514;82;20945;-71
2022/02/21 02:43:36;;;;;;;17.48;9.15;;;;;;;2.04;65.59;100455.91;1744154;81;21378;-71
2022/02/21 02:46:03;;;;;;;15.55;8.80;;;;;;;2.03;65.61;100454.23;1744388;81;20983;-72
2022/02/21 02:48:32;;;;;;;13.62;8.33;;;;;;;2.00;65.66;100456.46;1744438;82;21155;-73
2022/02/21 02:51:00;;;;;;;16.80;9.00;;;;;;;1.99;65.66;100449.58;1744265;81;20978;-73
2022/02/21 02:53:29;;;;;;;21.40;8.80;;;;;;;1.98;65.68;100456.95;1744356;80;20941;-73
2022/02/21 02:55:56;;;;;;;13.75;7.90;;;;;;;1.97;65.64;100461.70;1687521;84;20999;-73
2022/02/21 02:58:22;;;;;;;14.38;8.83;;;;;;;1.97;65.56;100463.44;1708854;84;21517;-72
2022/02/21 03:00:51;;;;;;;20.35;9.65;;;;;;;1.97;65.56;100460.86;1708637;84;21166;-72
2022/02/21 03:03:18;;;;;;;14.10;8.78;;;;;;;1.98;65.46;100458.23;1708797;84;20857;-71
2022/02/21 03:05:45;;;;;;;20.37;9.15;;;;;;;2.01;65.36;100452.97;1708756;84;20928;-73
2022/02/21 03:08:11;;;;;;;18.77;8.90;;;;;;;2.06;65.29;100448.96;1708801;84;20929;-72
2022/02/21 03:10:38;;;;;;;13.78;9.35;;;;;;;2.10;65.16;100446.70;1708649;84;20892;-72
2022/02/21 03:13:05;;;;;;;14.45;7.72;;;;;;;2.13;65.04;100444.47;1708882;83;21214;-71
2022/02/21 03:15:31;;;;;;;14.35;9.70;;;;;;;2.16;65.07;100443.11;1708706;82;20931;-71
2022/02/21 03:17:58;;;;;;;18.35;9.03;;;;;;;2.18;65.02;100440.00;1708601;82;20900;-72
2022/02/21 03:20:26;;;;;;;14.35;9.25;;;;;;;2.17;65.08;100429.27;1708556;84;20983;-73
2022/02/21 03:22:52;;;;;;;14.83;9.23;;;;;;;2.19;65.09;100433.50;1708641;83;21571;-72
2022/02/21 03:25:19;;;;;;;22.10;9.75;;;;;;;2.21;65.11;100439.48;1708745;84;21411;-73
2022/02/21 03:27:46;;;;;;;15.35;8.50;;;;;;;2.22;65.16;100448.08;1708573;84;20931;-72
2022/02/21 03:30:14;;;;;;;16.42;9.25;;;;;;;2.22;65.24;100454.13;1708562;84;20968;-73
2022/02/21 03:32:41;;;;;;;15.78;9.08;;;;;;;2.24;65.23;100450.19;1708672;84;21438;-72
2022/02/21 03:35:08;;;;;;;15.78;9.35;;;;;;;2.24;65.31;100443.72;1708654;84;20861;-73
2022/02/21 03:37:35;;;;;;;18.50;9.70;;;;;;;2.23;65.29;100448.05;1708616;84;21145;-72
2022/02/21 03:40:07;;;;;;;15.32;9.55;;;;;;;2.23;65.30;100439.00;1708596;84;20951;-73
2022/02/21 03:42:34;;;;;;;13.78;8.55;;;;;;;2.24;65.38;100448.44;1708730;84;20928;-72
2022/02/21 03:45:02;;;;;;;20.10;9.60;;;;;;;2.26;65.42;100449.24;1708638;84;21057;-72
2022/02/21 03:47:29;;;;;;;18.32;9.85;;;;;;;2.27;65.46;100453.55;1709057;83;20908;-72
2022/02/21 03:49:56;;;;;;;24.18;10.55;;;;;;;2.27;65.46;100454.00;1708678;82;21153;-72
2022/02/21 03:52:22;;;;;;;14.40;9.30;;;;;;;2.28;65.49;100447.47;1744652;81;21390;-72
2022/02/21 03:54:49;;;;;;;21.10;10.93;;;;;;;2.30;65.51;100450.47;1744569;82;21011;-73
2022/02/21 03:57:17;;;;;;;19.60;10.55;;;;;;;2.30;65.57;100442.70;1744719;82;20924;-73
2022/02/21 03:59:43;;;;;;;23.77;12.03;;;;;;;2.30;65.62;100455.19;1744525;82;21410;-72
2022/02/21 04:02:10;;;;;;;22.07;11.10;;;;;;;2.31;65.67;100456.03;1744804;82;21492;-71
2022/02/21 04:04:37;;;;;;;16.87;10.10;;;;;;;2.32;65.74;100461.63;1744533;82;20917;-71
2022/02/21 04:07:04;;;;;;;18.57;9.60;;;;;;;2.31;65.76;100453.44;1744915;82;21430;-72
2022/02/21 04:09:31;;;;;;;20.70;11.60;;;;;;;2.30;65.90;100450.47;1744503;81;20897;-72
2022/02/21 04:11:58;;;;;;;16.87;9.40;;;;;;;2.28;65.92;100451.34;1744834;82;20924;-72
2022/02/21 04:14:25;;;;;;;18.52;10.38;;;;;;;2.27;65.99;100448.37;1744418;82;22161;-73
2022/02/21 04:16:52;;;;;;;20.82;12.28;;;;;;;2.25;66.10;100443.69;1744709;82;20901;-72
2022/02/21 04:19:18;;;;;;;21.00;11.03;;;;;;;2.24;66.24;100441.13;1744625;82;20897;-73
2022/02/21 04:21:45;;;;;;;19.32;10.95;;;;;;;2.24;66.35;100443.72;1744463;81;20983;-71
2022/02/21 04:24:13;;;;;;;20.15;11.20;;;;;;;2.24;66.45;100441.97;1754822;81;21014;-71
2022/02/21 04:26:39;;;;;;;18.55;11.22;;;;;;;2.25;66.52;100444.98;1754772;81;21313;-72
2022/02/21 04:29:06;;;;;;;16.65;10.38;;;;;;;2.26;66.59;100440.64;1754627;80;20971;-73
2022/02/21 04:31:33;;;;;;;18.37;10.68;;;;;;;2.26;66.67;100450.98;1754637;81;20976;-73
2022/02/21 04:34:00;;;;;;;16.93;10.60;;;;;;;2.26;66.73;100462.63;1754462;81;20889;-72
2022/02/21 04:36:28;;;;;;;18.92;11.12;;;;;;;2.27;66.79;100460.47;1754813;81;20920;-71
2022/02/21 04:38:54;;;;;;;19.02;11.33;;;;;;;2.28;66.83;100456.97;1754546;81;21541;-70
2022/02/21 04:41:21;;;;;;;17.05;10.55;;;;;;;2.31;66.84;100463.34;1754646;81;20901;-72
2022/02/21 04:43:48;;;;;;;28.73;18.87;;;;;;;2.31;66.89;100465.09;1754450;81;20920;-70
2022/02/21 04:46:14;;;;;;;17.15;11.95;;;;;;;2.32;66.96;100462.47;1754571;80;20928;-72
2022/02/21 04:48:41;;;;;;;19.40;11.95;;;;;;;2.35;66.99;100469.29;1754664;81;21477;-71
2022/02/21 04:51:08;;;;;;;17.27;11.10;;;;;;;2.36;67.01;100464.53;1754761;81;21107;-71
2022/02/21 04:53:35;;;;;;;16.65;10.50;;;;;;;2.36;67.09;100467.96;1754505;81;21501;-72
2022/02/21 04:56:01;;;;;;;20.00;10.85;;;;;;;2.38;67.17;100472.65;1755145;81;20858;-71
2022/02/21 04:58:28;;;;;;;18.50;10.38;;;;;;;2.41;67.18;100469.12;1754486;81;21003;-72
2022/02/21 05:00:55;;;;;;;23.85;12.85;;;;;;;2.42;67.17;100471.67;1754553;81;21023;-72
2022/02/21 05:03:22;;;;;;;18.62;10.80;;;;;;;2.46;67.24;100477.14;1754440;81;21119;-71
2022/02/21 05:05:50;;;;;;;22.32;11.45;;;;;;;2.52;67.25;100475.28;1754536;80;21000;-73
2022/02/21 05:08:17;;;;;;;30.10;12.78;;;;;;;2.55;67.27;100466.97;1754673;81;20887;-72
2022/02/21 05:10:44;;;;;;;24.15;11.50;;;;;;;2.58;67.31;100464.73;1754823;81;20896;-73
2022/02/21 05:13:11;;;;;;;23.83;14.25;;;;;;;2.60;67.25;100472.00;1754664;81;21015;-72
2022/02/21 05:15:38;;;;;;;22.50;11.97;;;;;;;2.62;67.30;100466.34;1754756;81;21915;-71
2022/02/21 05:18:05;;;;;;;25.92;10.70;;;;;;;2.64;67.31;100470.58;1754555;80;20932;-71
2022/02/21 05:20:32;;;;;;;19.75;12.73;;;;;;;2.69;67.34;100475.19;1754815;81;20884;-71
2022/02/21 05:23:00;;;;;;;24.87;14.50;;;;;;;2.75;67.40;100463.78;1755691;81;20872;-71
2022/02/21 05:25:27;;;;;;;20.52;13.18;;;;;;;2.78;67.35;100465.00;1757853;81;20995;-72
2022/02/21 05:27:54;;;;;;;35.03;13.58;;;;;;;2.79;67.28;100456.33;1757720;81;21520;-72
2022/02/21 05:30:20;;;;;;;23.18;14.38;;;;;;;2.81;67.22;100459.72;1757640;81;20908;-71
2022/02/21 05:32:47;;;;;;;29.90;14.83;;;;;;;2.83;67.08;100452.75;1757883;81;20849;-72
2022/02/21 05:35:14;;;;;;;25.52;13.55;;;;;;;2.83;67.00;100454.05;1757684;81;20904;-72
2022/02/21 05:37:41;;;;;;;19.40;11.68;;;;;;;2.82;66.98;100451.04;1757725;81;20884;-72
2022/02/21 05:40:10;;;;;;;16.97;9.58;;;;;;;2.79;67.05;100451.15;1757757;81;21178;-71
2022/02/21 05:42:36;;;;;;;21.07;11.30;;;;;;;2.85;67.21;100452.27;1757708;80;21407;-73
2022/02/21 05:45:04;;;;;;;21.02;10.78;;;;;;;3.20;67.36;100457.22;1757791;81;20924;-71
2022/02/21 05:47:32;;;;;;;23.42;11.15;;;;;;;3.62;66.35;100460.59;1757832;81;20947;-72
2022/02/21 05:49:58;;;;;;;24.00;12.00;;;;;;;3.88;65.42;100463.14;1757791;81;20852;-71
2022/02/21 05:52:25;;;;;;;18.85;11.93;;;;;;;4.13;64.44;100464.86;1757818;81;21124;-71
2022/02/21 05:54:52;;;;;;;20.00;10.88;;;;;;;4.52;63.87;100466.92;1757662;81;20881;-72
2022/02/21 05:57:21;;;;;;;23.52;11.45;;;;;;;5.10;62.92;100470.31;1757837;81;21373;-71
2022/02/21 05:59:47;;;;;;;18.80;11.43;;;;;;;5.72;61.51;100475.16;1758208;81;20920;-73
2022/02/21 06:02:14;;;;;;;18.02;11.18;;;;;;;6.34;59.71;100474.21;1757477;81;20993;-71
2022/02/21 06:04:41;;;;;;;20.95;12.23;;;;;;;6.97;58.11;100475.67;1758203;81;21484;-72
2022/02/21 06:07:08;;;;;;;18.15;10.78;;;;;;;7.56;55.99;100475.85;1758284;81;21346;-72
2022/02/21 06:09:36;;;;;;;17.87;11.57;;;;;;;8.06;54.30;100474.19;1758657;81;21021;-73
2022/02/21 06:12:03;;;;;;;19.37;10.00;;;;;;;8.52;53.10;100469.19;1758120;81;21060;-74
2022/02/21 06:14:31;;;;;;;20.92;12.05;;;;;;;8.99;52.09;100468.34;1757884;81;21350;-74
2022/02/21 06:16:58;;;;;;;18.60;9.73;;;;;;;9.45;50.53;100467.48;1757880;81;21151;-71
2022/02/21 06:19:24;;;;;;;19.73;11.20;;;;;;;9.86;49.52;100457.22;1758014;81;21003;-71
2022/02/21 06:21:51;;;;;;;17.20;10.25;;;;;;;10.31;47.97;100470.28;1757755;81;20869;-73
2022/02/21 06:24:18;;;;;;;20.77;11.03;;;;;;;10.57;47.27;100471.30;1747273;81;20996;-74
2022/02/21 06:26:45;;;;;;;19.07;11.38;;;;;;;10.86;46.24;100470.77;1744643;82;20987;-74
2022/02/21 06:29:12;;;;;;;23.45;11.78;;;;;;;11.12;45.72;100472.20;1744453;81;21130;-74
2022/02/21 06:31:38;;;;;;;23.95;11.90;;;;;;;11.38;44.98;100473.11;1744352;82;20964;-72
2022/02/21 06:34:07;;;;;;;22.20;10.58;;;;;;;11.61;44.38;100471.61;1744473;82;20976;-73
2022/02/21 06:36:34;;;;;;;15.48;10.75;;;;;;;11.84;43.96;100468.73;1744278;80;20968;-74
2022/02/21 06:39:01;;;;;;;15.88;10.70;;;;;;;12.07;43.32;100465.88;1744497;81;21505;-75
2022/02/21 06:41:28;;;;;;;14.63;10.25;;;;;;;12.33;42.89;100467.19;1744419;82;21190;-74
2022/02/21 06:43:55;;;;;;;15.40;10.60;;;;;;;12.68;42.35;100469.12;1744450;82;20940;-75
2022/02/21 06:46:22;;;;;;;18.85;10.32;;;;;;;12.77;41.88;100467.98;1744369;81;21010;-72
2022/02/21 06:48:48;;;;;;;16.82;10.08;;;;;;;12.51;41.81;100473.77;1744444;82;20897;-73
2022/02/21 06:51:15;;;;;;;24.23;15.75;;;;;;;11.97;42.15;100474.03;1744393;81;21474;-73
2022/02/21 06:53:42;;;;;;;15.28;11.68;;;;;;;11.36;42.99;100468.43;1744444;82;21156;-74
2022/02/21 06:56:10;;;;;;;17.55;10.38;;;;;;;10.76;43.83;100475.77;1744350;82;20889;-71
2022/02/21 06:58:37;;;;;;;17.92;10.78;;;;;;;10.21;44.90;100478.31;1744438;80;21041;-73
2022/02/21 07:01:06;;;;;;;17.10;10.25;;;;;;;9.65;45.99;100488.14;1744409;81;20920;-74
2022/02/21 07:03:32;;;;;;;18.02;10.75;;;;;;;9.14;47.00;100483.66;1744712;82;21431;-72
2022/02/21 07:05:59;;;;;;;18.73;13.03;;;;;;;8.63;48.09;100487.74;1744430;82;21101;-74
2022/02/21 07:08:26;;;;;;;16.40;12.10;;;;;;;8.24;49.02;100484.97;1744712;80;21504;-74
2022/02/21 07:10:53;;;;;;;23.62;11.38;;;;;;;7.91;50.04;100478.89;1744402;82;21011;-72
2022/02/21 07:13:21;;;;;;;18.02;11.73;;;;;;;7.57;51.00;100485.35;1744480;82;20869;-72
2022/02/21 07:15:48;;;;;;;21.40;11.88;;;;;;;7.27;51.84;100486.42;1744398;82;20932;-72
2022/02/21 07:18:15;;;;;;;16.10;10.98;;;;;;;7.03;52.50;100483.22;1744619;82;21102;-73
2022/02/21 07:20:42;;;;;;;18.17;11.60;;;;;;;6.83;53.32;100476.34;1744271;81;20888;-74
2022/02/21 07:23:09;;;;;;;16.17;10.68;;;;;;;6.62;53.83;100482.91;1746655;81;20991;-75
2022/02/21 07:25:36;;;;;;;17.02;11.20;;;;;;;6.49;54.40;100483.53;1757688;81;21092;-75
2022/02/21 07:28:03;;;;;;;17.48;11.40;;;;;;;6.37;54.88;100481.03;1757855;81;20956;-71
2022/02/21 07:30:30;;;;;;;17.50;11.45;;;;;;;6.28;55.30;100477.08;1758028;80;21979;-72
2022/02/21 07:32:58;;;;;;;16.75;11.00;;;;;;;6.22;55.74;100470.84;1757774;81;20919;-71
2022/02/21 07:37:54;;;;;;;18.32;10.53;;;;;;;6.08;56.38;100475.36;1798588;79;22621;-70
2022/02/21 07:40:21;;;;;;;17.75;11.00;;;;;;;5.95;56.55;100469.83;1758275;81;20936;-70
2022/02/21 07:42:54;;;;;;;19.40;11.88;;;;;;;5.93;56.92;100474.22;1758199;81;21079;-69
2022/02/21 07:45:22;;;;;;;15.43;10.00;;;;;;;5.91;57.32;100466.09;1758135;81;21466;-71
2022/02/21 07:47:55;;;;;;;18.40;10.80;;;;;;;5.89;57.52;100466.18;1758154;81;20944;-76
2022/02/21 07:50:25;;;;;;;17.05;10.85;;;;;;;5.86;57.68;100460.25;1758061;81;21394;-83
2022/02/21 07:52:55;;;;;;;14.63;10.50;;;;;;;5.82;58.09;100460.83;1758353;81;21377;-76
2022/02/21 07:55:21;;;;;;;14.85;10.70;;;;;;;5.79;58.37;100463.57;1758181;81;21122;-76
2022/02/21 07:57:48;;;;;;;18.10;9.63;;;;;;;5.80;58.60;100457.44;1758186;80;20935;-77
2022/02/21 08:00:17;;;;;;;19.32;11.93;;;;;;;5.84;58.72;100458.17;1758069;81;20935;-74
2022/02/21 08:02:44;;;;;;;14.10;9.28;;;;;;;5.84;58.85;100455.10;1758352;81;21277;-74
2022/02/21 08:05:11;;;;;;;17.98;10.40;;;;;;;5.85;59.11;100448.13;1758142;81;20904;-72
2022/02/21 08:07:38;;;;;;;17.37;10.08;;;;;;;5.87;59.30;100448.91;1758596;81;21095;-74
2022/02/21 08:10:05;;;;;;;15.55;10.55;;;;;;;5.90;59.34;100452.70;1758239;80;21015;-74
2022/02/21 08:12:34;;;;;;;16.25;10.45;;;;;;;5.92;59.54;100453.02;1758104;81;20995;-75
2022/02/21 08:15:01;;;;;;;22.32;12.80;;;;;;;5.99;59.51;100461.44;1758110;81;21441;-75
2022/02/21 08:17:42;;;;;;;18.15;10.88;;;;;;;6.08;59.48;100461.50;1758435;81;21466;-74
2022/02/21 08:20:11;;;;;;;15.28;9.38;;;;;;;6.25;59.57;100451.19;1757989;81;22202;-73
2022/02/21 08:22:39;;;;;;;15.88;9.70;;;;;;;6.77;58.76;100454.46;1758471;81;21089;-74
2022/02/21 08:25:07;;;;;;;12.68;8.93;;;;;;;7.57;57.53;100458.42;1758146;81;20920;-75
2022/02/21 08:27:36;;;;;;;18.52;9.35;;;;;;;8.44;55.33;100451.76;1758491;81;21350;-74
2022/02/21 08:30:05;;;;;;;15.53;9.28;;;;;;;9.27;53.18;100445.84;1758299;81;20992;-76
2022/02/21 08:32:33;;;;;;;17.05;7.87;;;;;;;10.02;51.35;100451.89;1758083;81;21120;-76
2022/02/21 08:35:00;;;;;;;14.15;7.97;;;;;;;10.70;49.28;100446.46;1758110;81;20920;-77
2022/02/21 08:37:26;;;;;;;15.23;9.30;;;;;;;11.32;47.66;100455.16;1749196;81;20892;-79
2022/02/21 08:39:53;;;;;;;10.58;7.15;;;;;;;11.91;46.31;100454.73;1745161;80;20924;-78
2022/02/21 08:42:20;;;;;;;12.73;7.78;;;;;;;12.42;45.24;100446.81;1745176;82;20987;-82
2022/02/21 08:44:47;;;;;;;13.40;8.00;;;;;;;12.83;44.22;100443.87;1745128;81;21203;-81
2022/02/21 08:47:17;;;;;;;11.05;7.92;;;;;;;13.25;43.17;100444.77;1744901;82;21142;-78
2022/02/21 08:49:44;;;;;;;16.25;8.18;;;;;;;13.56;42.41;100445.14;1744514;81;20862;-79
2022/02/21 08:52:11;;;;;;;12.63;8.08;;;;;;;13.85;42.18;100437.66;1744491;82;20936;-80
2022/02/21 08:54:38;;;;;;;11.83;8.30;;;;;;;14.32;41.79;100452.94;1744481;81;20936;-77
2022/02/21 08:57:06;;;;;;;13.75;7.62;;;;;;;14.79;40.71;100447.52;1744529;81;20940;-79
2022/02/21 08:59:33;;;;;;;11.45;7.25;;;;;;;15.20;39.72;100446.77;1744625;82;20877;-81
2022/02/21 09:02:00;;;;;;;15.13;6.67;;;;;;;15.58;39.12;100445.88;1744672;81;20929;-80
2022/02/21 09:04:27;;;;;;;9.50;5.92;;;;;;;15.83;38.55;100441.56;1744610;82;20984;-83
2022/02/21 09:06:54;;;;;;;8.10;5.45;;;;;;;16.09;37.70;100444.59;1744514;82;20945;-82
2022/02/21 09:09:22;;;;;;;9.55;7.37;;;;;;;16.31;36.98;100434.81;1744539;82;21111;-76
2022/02/21 09:11:51;;;;;;;10.58;6.92;;;;;;;16.51;37.13;100436.55;1744649;80;21051;-79
2022/02/21 09:14:18;;;;;;;9.43;5.70;;;;;;;16.66;36.59;100432.21;1744802;81;21534;-76
2022/02/21 09:16:45;;;;;;;8.95;6.22;;;;;;;16.74;36.59;100428.38;1744571;81;20905;-78
2022/02/21 09:19:12;;;;;;;7.87;5.92;;;;;;;16.81;36.12;100428.23;1744710;80;21481;-79
2022/02/21 09:21:39;;;;;;;6.95;4.92;;;;;;;16.87;35.83;100418.39;1744614;82;21569;-78
2022/02/21 09:24:06;;;;;;;5.95;4.22;;;;;;;16.87;35.31;100430.30;1744556;82;20881;-76
2022/02/21 09:26:33;;;;;;;8.43;5.30;;;;;;;16.78;35.24;100412.10;1744703;80;20929;-78
2022/02/21 09:28:59;;;;;;;4.97;4.03;;;;;;;16.86;35.54;100415.90;1744562;80;21382;-75
2022/02/21 09:31:26;;;;;;;6.53;5.12;;;;;;;17.00;35.04;100415.48;1744684;81;20866;-71
2022/02/21 09:33:53;;;;;;;7.67;5.12;;;;;;;17.07;34.39;100417.91;1744551;82;21953;-70
2022/02/21 09:36:21;;;;;;;6.35;5.10;;;;;;;17.15;34.92;100414.58;1745058;81;20905;-70
2022/02/21 09:38:48;;;;;;;11.93;5.50;;;;;;;17.11;34.99;100413.19;1757833;81;21056;-70
2022/02/21 09:41:15;;;;;;;9.53;5.90;;;;;;;17.13;35.28;100413.39;1757851;81;20940;-70
2022/02/21 09:43:42;;;;;;;10.10;5.87;;;;;;;17.15;35.24;100406.63;1757856;81;20892;-70
2022/02/21 09:46:10;;;;;;;5.53;4.17;;;;;;;17.25;34.96;100402.64;1757825;81;22034;-71
2022/02/21 09:48:39;;;;;;;8.33;4.78;;;;;;;17.28;34.99;100401.05;1757637;81;20972;-70
2022/02/21 09:51:06;;;;;;;6.53;4.35;;;;;;;17.38;34.46;100404.52;1757699;81;20905;-70
2022/02/21 09:53:38;;;;;;;7.97;5.25;;;;;;;17.33;34.31;100409.41;1757648;80;21413;-70
2022/02/21 09:56:05;;;;;;;6.00;3.92;;;;;;;17.24;34.79;100411.09;1757762;81;20971;-70
2022/02/21 09:58:33;;;;;;;7.08;4.00;;;;;;;17.26;34.72;100403.84;1757717;81;21993;-70
2022/02/21 10:01:00;;;;;;;8.65;4.60;;;;;;;17.29;34.32;100396.92;1757624;81;20936;-70
2022/02/21 10:03:41;;;;;;;7.05;4.72;;;;;;;17.34;34.21;100400.47;1757648;81;20952;-69
2022/02/21 10:06:29;;;;;;;7.37;4.10;;;;;;;17.37;34.21;100401.03;1757723;80;21520;-70
2022/02/21 10:09:10;;;;;;;5.03;4.50;;;;;;;17.44;33.86;100405.28;1757765;81;20892;-75
2022/02/21 10:11:43;;;;;;;4.83;4.33;;;;;;;17.42;33.91;100398.45;1757934;80;21143;-73
2022/02/21 10:14:19;;;;;;;10.32;4.37;;;;;;;17.46;34.39;100403.33;1721538;82;20983;-72
2022/02/21 10:16:49;;;;;;;6.25;3.75;;;;;;;17.63;34.00;100395.14;1721749;83;21014;-72
2022/02/21 10:19:21;;;;;;;4.33;2.90;;;;;;;17.70;33.17;100395.41;1721766;83;20935;-71
2022/02/21 10:21:59;;;;;;;5.55;4.00;;;;;;;17.70;33.08;100394.08;1721823;83;20951;-72
2022/02/21 10:24:25;;;;;;;5.90;3.67;;;;;;;17.83;33.42;100395.95;1721435;83;21247;-74
2022/02/21 10:26:52;;;;;;;4.40;3.65;;;;;;;17.89;32.86;100391.88;1721846;83;20884;-72
2022/02/21 10:29:20;;;;;;;11.40;4.33;;;;;;;17.90;32.73;100388.25;1721653;82;21570;-72
2022/02/21 10:31:47;;;;;;;4.05;3.55;;;;;;;17.84;32.94;100391.48;1721567;82;20982;-71
2022/02/21 10:34:14;;;;;;;7.50;4.35;;;;;;;17.88;32.74;100383.09;1721691;83;20864;-73
2022/02/21 10:36:44;;;;;;;4.80;4.00;;;;;;;17.96;32.52;100373.92;1720591;83;22298;-72
2022/02/21 10:39:15;;;;;;;7.47;3.62;;;;;;;18.04;32.17;100371.84;1708673;84;20920;-79
2022/02/21 10:41:51;;;;;;;7.15;3.35;;;;;;;17.99;31.85;100364.82;1708616;82;20869;-70
2022/02/21 10:44:25;;;;;;;4.58;3.70;;;;;;;17.93;31.88;100372.03;1708665;82;20948;-71
2022/02/21 10:47:14;;;;;;;6.95;4.25;;;;;;;17.98;32.03;100376.41;1709055;82;20896;-72
2022/02/21 10:49:52;;;;;;;4.75;3.55;;;;;;;18.10;31.51;100370.44;1741094;81;21173;-72
2022/02/21 10:52:23;;;;;;;6.15;4.08;;;;;;;18.06;31.72;100375.69;1744703;81;20881;-72
2022/02/21 10:54:50;;;;;;;7.10;4.33;;;;;;;18.04;31.62;100363.88;1708769;84;20889;-77
2022/02/21 10:57:18;;;;;;;6.92;5.10;;;;;;;18.03;31.40;100355.59;1708875;82;21365;-72
2022/02/21 10:59:45;;;;;;;6.05;5.03;;;;;;;17.95;31.40;100358.13;1708670;82;21012;-73
2022/02/21 11:02:17;;;;;;;10.18;6.70;;;;;;;17.86;31.60;100360.34;1708996;84;21153;-73
2022/02/21 11:04:44;;;;;;;9.35;6.53;;;;;;;17.87;31.50;100364.16;1708582;84;20932;-72
2022/02/21 11:07:13;;;;;;;7.37;4.78;;;;;;;17.84;31.62;100354.34;1708472;82;20928;-72
2022/02/21 11:09:41;;;;;;;7.75;5.45;;;;;;;17.86;31.30;100347.91;1708315;84;20979;-71
2022/02/21 11:12:09;;;;;;;6.97;4.83;;;;;;;17.83;31.54;100356.63;1708606;84;20951;-70
2022/02/21 11:14:38;;;;;;;6.75;4.53;;;;;;;17.81;31.75;100351.00;1708899;84;21576;-71
2022/02/21 11:17:09;;;;;;;7.45;4.58;;;;;;;17.88;31.58;100353.08;1708685;84;20990;-70
2022/02/21 11:19:36;;;;;;;7.03;4.80;;;;;;;17.88;31.53;100346.44;1708665;84;20916;-71
2022/02/21 11:22:03;;;;;;;7.50;5.78;;;;;;;17.70;31.37;100340.53;1708597;84;20900;-70
2022/02/21 11:24:32;;;;;;;10.32;5.08;;;;;;;17.60;31.74;100338.39;1687028;84;20987;-72
2022/02/21 11:27:29;;;;;;;6.37;4.75;;;;;;;17.55;32.04;100335.35;1708938;84;21117;-70